sensor_id;sensor_type;location;lat;lon;timestamp;P1;durP1;ratioP1;P2;durP2;ratioP2
23517;SDS011;11935;50.878;4.392;2022-11-04T00:01:30;9.27;;;1.38;;
23517;SDS011;11935;50.878;4.392;2022-11-04T00:03:56;6.03;;;1.38;;
23517;SDS011;11935;50.878;4.392;2022-11-04T00:06:22;8.05;;;1.65;;
23517;SDS011;11935;50.878;4.392;2022-11-04T00:08:49;7.03;;;1.63;;
23517;SDS011;11935;50.878;4.392;2022-11-04T00:11:15;7.28;;;1.50;;
23517;SDS011;11935;50.878;4.392;2022-11-04T00:13:59;6.78;;;1.60;;
23517;SDS011;11935;50.878;4.392;2022-11-04T00:16:25;5.38;;;1.30;;
23517;SDS011;11935;50.878;4.392;2022-11-04T00:19:10;8.50;;;2.00;;
23517;SDS011;11935;50.878;4.392;2022-11-04T00:21:36;6.90;;;1.42;;
23517;SDS011;11935;50.878;4.392;2022-11-04T00:24:21;6.85;;;1.30;;
23517;SDS011;11935;50.878;4.392;2022-11-04T00:27:06;7.80;;;1.77;;
23517;SDS011;11935;50.878;4.392;2022-11-04T00:29:51;5.70;;;1.60;;
23517;SDS011;11935;50.878;4.392;2022-11-04T00:32:17;6.43;;;1.20;;
23517;SDS011;11935;50.878;4.392;2022-11-04T00:35:02;4.80;;;1.52;;
23517;SDS011;11935;50.878;4.392;2022-11-04T00:37:28;2.97;;;1.30;;
23517;SDS011;11935;50.878;4.392;2022-11-04T00:39:54;7.60;;;2.25;;
23517;SDS011;11935;50.878;4.392;2022-11-04T00:42:20;8.10;;;1.85;;
23517;SDS011;11935;50.878;4.392;2022-11-04T00:44:46;7.55;;;1.30;;
23517;SDS011;11935;50.878;4.392;2022-11-04T00:47:12;7.03;;;1.55;;
23517;SDS011;11935;50.878;4.392;2022-11-04T00:49:38;11.15;;;1.67;;
23517;SDS011;11935;50.878;4.392;2022-11-04T00:52:04;7.40;;;1.90;;
23517;SDS011;11935;50.878;4.392;2022-11-04T00:54:30;5.45;;;1.48;;
23517;SDS011;11935;50.878;4.392;2022-11-04T00:56:56;13.63;;;1.40;;
23517;SDS011;11935;50.878;4.392;2022-11-04T00:59:22;5.72;;;1.45;;
23517;SDS011;11935;50.878;4.392;2022-11-04T01:01:48;7.07;;;1.50;;
23517;SDS011;11935;50.878;4.392;2022-11-04T01:04:14;9.10;;;1.77;;
23517;SDS011;11935;50.878;4.392;2022-11-04T01:06:40;6.75;;;1.65;;
23517;SDS011;11935;50.878;4.392;2022-11-04T01:09:07;9.50;;;1.55;;
23517;SDS011;11935;50.878;4.392;2022-11-04T01:11:33;8.90;;;1.50;;
23517;SDS011;11935;50.878;4.392;2022-11-04T01:13:59;9.00;;;1.88;;
23517;SDS011;11935;50.878;4.392;2022-11-04T01:16:25;8.70;;;1.80;;
23517;SDS011;11935;50.878;4.392;2022-11-04T01:18:52;8.50;;;1.45;;
23517;SDS011;11935;50.878;4.392;2022-11-04T01:21:18;6.03;;;1.05;;
23517;SDS011;11935;50.878;4.392;2022-11-04T01:23:44;5.85;;;1.67;;
23517;SDS011;11935;50.878;4.392;2022-11-04T01:26:12;8.05;;;1.35;;
23517;SDS011;11935;50.878;4.392;2022-11-04T01:28:38;5.95;;;1.25;;
23517;SDS011;11935;50.878;4.392;2022-11-04T01:31:05;8.48;;;1.48;;
23517;SDS011;11935;50.878;4.392;2022-11-04T01:33:31;13.35;;;1.83;;
23517;SDS011;11935;50.878;4.392;2022-11-04T01:36:00;8.60;;;1.40;;
23517;SDS011;11935;50.878;4.392;2022-11-04T01:38:27;6.72;;;1.33;;
23517;SDS011;11935;50.878;4.392;2022-11-04T01:40:53;9.57;;;1.45;;
23517;SDS011;11935;50.878;4.392;2022-11-04T01:43:20;9.00;;;1.70;;
23517;SDS011;11935;50.878;4.392;2022-11-04T01:45:47;9.07;;;1.60;;
23517;SDS011;11935;50.878;4.392;2022-11-04T01:48:17;10.05;;;1.42;;
23517;SDS011;11935;50.878;4.392;2022-11-04T01:50:46;11.13;;;2.00;;
23517;SDS011;11935;50.878;4.392;2022-11-04T01:53:23;4.75;;;1.30;;
23517;SDS011;11935;50.878;4.392;2022-11-04T01:58:17;8.68;;;1.95;;
23517;SDS011;11935;50.878;4.392;2022-11-04T02:00:46;7.65;;;1.50;;
23517;SDS011;11935;50.878;4.392;2022-11-04T02:03:17;5.05;;;1.63;;
23517;SDS011;11935;50.878;4.392;2022-11-04T02:05:43;8.52;;;1.80;;
23517;SDS011;11935;50.878;4.392;2022-11-04T02:08:11;13.40;;;1.92;;
23517;SDS011;11935;50.878;4.392;2022-11-04T02:10:38;10.82;;;1.95;;
23517;SDS011;11935;50.878;4.392;2022-11-04T02:13:05;6.90;;;1.90;;
23517;SDS011;11935;50.878;4.392;2022-11-04T02:15:40;6.20;;;1.40;;
23517;SDS011;11935;50.878;4.392;2022-11-04T02:18:15;8.47;;;1.57;;
23517;SDS011;11935;50.878;4.392;2022-11-04T02:20:58;6.43;;;1.60;;
23517;SDS011;11935;50.878;4.392;2022-11-04T02:23:37;10.48;;;1.80;;
23517;SDS011;11935;50.878;4.392;2022-11-04T02:28:58;14.13;;;1.95;;
23517;SDS011;11935;50.878;4.392;2022-11-04T02:34:06;6.75;;;1.55;;
23517;SDS011;11935;50.878;4.392;2022-11-04T02:36:43;8.23;;;2.05;;
23517;SDS011;11935;50.878;4.392;2022-11-04T02:47:27;5.97;;;1.80;;
23517;SDS011;11935;50.878;4.392;2022-11-04T02:49:59;10.00;;;1.75;;
23517;SDS011;11935;50.878;4.392;2022-11-04T02:55:10;13.70;;;4.30;;
23517;SDS011;11935;50.878;4.392;2022-11-04T02:57:38;12.30;;;4.53;;
23517;SDS011;11935;50.878;4.392;2022-11-04T03:00:06;14.27;;;4.95;;
23517;SDS011;11935;50.878;4.392;2022-11-04T03:02:39;14.48;;;3.63;;
23517;SDS011;11935;50.878;4.392;2022-11-04T03:05:08;11.98;;;3.03;;
23517;SDS011;11935;50.878;4.392;2022-11-04T03:07:37;14.75;;;3.47;;
23517;SDS011;11935;50.878;4.392;2022-11-04T03:10:06;6.05;;;2.10;;
23517;SDS011;11935;50.878;4.392;2022-11-04T03:12:36;8.98;;;2.60;;
23517;SDS011;11935;50.878;4.392;2022-11-04T03:15:05;11.75;;;2.70;;
23517;SDS011;11935;50.878;4.392;2022-11-04T03:17:53;6.75;;;2.45;;
23517;SDS011;11935;50.878;4.392;2022-11-04T03:20:21;7.85;;;2.17;;
23517;SDS011;11935;50.878;4.392;2022-11-04T03:22:48;11.18;;;2.78;;
23517;SDS011;11935;50.878;4.392;2022-11-04T03:25:14;9.43;;;2.40;;
23517;SDS011;11935;50.878;4.392;2022-11-04T03:27:53;7.05;;;2.80;;
23517;SDS011;11935;50.878;4.392;2022-11-04T03:30:21;10.27;;;2.35;;
23517;SDS011;11935;50.878;4.392;2022-11-04T03:35:19;11.98;;;2.17;;
23517;SDS011;11935;50.878;4.392;2022-11-04T03:37:46;15.10;;;2.85;;
23517;SDS011;11935;50.878;4.392;2022-11-04T03:40:13;8.23;;;2.28;;
23517;SDS011;11935;50.878;4.392;2022-11-04T03:42:42;11.00;;;2.33;;
23517;SDS011;11935;50.878;4.392;2022-11-04T03:45:09;8.93;;;2.50;;
23517;SDS011;11935;50.878;4.392;2022-11-04T03:47:36;10.65;;;2.88;;
23517;SDS011;11935;50.878;4.392;2022-11-04T03:52:46;5.55;;;2.20;;
23517;SDS011;11935;50.878;4.392;2022-11-04T03:55:12;10.43;;;2.08;;
23517;SDS011;11935;50.878;4.392;2022-11-04T04:00:11;10.10;;;2.75;;
23517;SDS011;11935;50.878;4.392;2022-11-04T04:02:54;9.23;;;2.33;;
23517;SDS011;11935;50.878;4.392;2022-11-04T04:05:26;8.02;;;2.88;;
23517;SDS011;11935;50.878;4.392;2022-11-04T04:13:12;8.20;;;2.92;;
23517;SDS011;11935;50.878;4.392;2022-11-04T04:15:42;7.70;;;2.60;;
23517;SDS011;11935;50.878;4.392;2022-11-04T04:18:11;11.13;;;2.40;;
23517;SDS011;11935;50.878;4.392;2022-11-04T04:20:38;7.95;;;2.28;;
23517;SDS011;11935;50.878;4.392;2022-11-04T04:23:06;11.27;;;2.90;;
23517;SDS011;11935;50.878;4.392;2022-11-04T04:25:52;10.07;;;2.47;;
23517;SDS011;11935;50.878;4.392;2022-11-04T04:28:38;9.02;;;2.85;;
23517;SDS011;11935;50.878;4.392;2022-11-04T04:31:05;11.63;;;2.58;;
23517;SDS011;11935;50.878;4.392;2022-11-04T04:33:31;11.02;;;2.80;;
23517;SDS011;11935;50.878;4.392;2022-11-04T04:35:57;9.80;;;2.80;;
23517;SDS011;11935;50.878;4.392;2022-11-04T04:38:26;9.40;;;2.38;;
23517;SDS011;11935;50.878;4.392;2022-11-04T04:41:19;9.77;;;2.60;;
23517;SDS011;11935;50.878;4.392;2022-11-04T04:44:08;8.95;;;2.10;;
23517;SDS011;11935;50.878;4.392;2022-11-04T04:47:05;6.53;;;2.03;;
23517;SDS011;11935;50.878;4.392;2022-11-04T04:49:32;14.50;;;2.50;;
23517;SDS011;11935;50.878;4.392;2022-11-04T04:52:02;17.52;;;2.33;;
23517;SDS011;11935;50.878;4.392;2022-11-04T04:54:28;12.30;;;3.07;;
23517;SDS011;11935;50.878;4.392;2022-11-04T04:56:54;11.05;;;2.30;;
23517;SDS011;11935;50.878;4.392;2022-11-04T04:59:20;9.88;;;2.08;;
23517;SDS011;11935;50.878;4.392;2022-11-04T05:01:46;9.32;;;2.30;;
23517;SDS011;11935;50.878;4.392;2022-11-04T05:04:13;9.43;;;2.70;;
23517;SDS011;11935;50.878;4.392;2022-11-04T05:06:39;7.72;;;1.83;;
23517;SDS011;11935;50.878;4.392;2022-11-04T05:09:05;11.27;;;2.58;;
23517;SDS011;11935;50.878;4.392;2022-11-04T05:11:31;11.52;;;2.42;;
23517;SDS011;11935;50.878;4.392;2022-11-04T05:13:57;6.60;;;1.80;;
23517;SDS011;11935;50.878;4.392;2022-11-04T05:16:23;10.38;;;2.05;;
23517;SDS011;11935;50.878;4.392;2022-11-04T05:18:50;13.18;;;2.08;;
23517;SDS011;11935;50.878;4.392;2022-11-04T05:21:16;10.45;;;2.40;;
23517;SDS011;11935;50.878;4.392;2022-11-04T05:23:43;10.45;;;2.40;;
23517;SDS011;11935;50.878;4.392;2022-11-04T05:26:09;10.93;;;3.83;;
23517;SDS011;11935;50.878;4.392;2022-11-04T05:28:35;10.60;;;4.65;;
23517;SDS011;11935;50.878;4.392;2022-11-04T05:31:03;11.85;;;3.40;;
23517;SDS011;11935;50.878;4.392;2022-11-04T05:33:29;12.23;;;4.13;;
23517;SDS011;11935;50.878;4.392;2022-11-04T05:36:04;13.48;;;5.43;;
23517;SDS011;11935;50.878;4.392;2022-11-04T05:38:30;11.52;;;4.00;;
23517;SDS011;11935;50.878;4.392;2022-11-04T05:40:56;10.73;;;3.45;;
23517;SDS011;11935;50.878;4.392;2022-11-04T05:43:22;5.72;;;1.88;;
23517;SDS011;11935;50.878;4.392;2022-11-04T05:45:48;9.48;;;3.13;;
23517;SDS011;11935;50.878;4.392;2022-11-04T05:48:14;11.98;;;2.78;;
23517;SDS011;11935;50.878;4.392;2022-11-04T05:50:40;14.40;;;6.57;;
23517;SDS011;11935;50.878;4.392;2022-11-04T05:53:07;8.27;;;2.50;;
23517;SDS011;11935;50.878;4.392;2022-11-04T05:55:33;11.15;;;2.58;;
23517;SDS011;11935;50.878;4.392;2022-11-04T05:57:59;10.90;;;2.67;;
23517;SDS011;11935;50.878;4.392;2022-11-04T06:00:25;10.88;;;2.30;;
23517;SDS011;11935;50.878;4.392;2022-11-04T06:02:52;9.35;;;2.30;;
23517;SDS011;11935;50.878;4.392;2022-11-04T06:05:21;8.52;;;1.95;;
23517;SDS011;11935;50.878;4.392;2022-11-04T06:07:47;9.15;;;2.30;;
23517;SDS011;11935;50.878;4.392;2022-11-04T06:10:13;6.55;;;2.05;;
23517;SDS011;11935;50.878;4.392;2022-11-04T06:12:39;11.05;;;2.10;;
23517;SDS011;11935;50.878;4.392;2022-11-04T06:15:05;8.73;;;2.38;;
23517;SDS011;11935;50.878;4.392;2022-11-04T06:17:31;8.95;;;2.63;;
23517;SDS011;11935;50.878;4.392;2022-11-04T06:19:57;7.28;;;2.17;;
23517;SDS011;11935;50.878;4.392;2022-11-04T06:22:23;11.68;;;2.28;;
23517;SDS011;11935;50.878;4.392;2022-11-04T06:24:49;16.73;;;2.33;;
23517;SDS011;11935;50.878;4.392;2022-11-04T06:27:16;14.68;;;2.50;;
23517;SDS011;11935;50.878;4.392;2022-11-04T06:29:43;11.47;;;2.57;;
23517;SDS011;11935;50.878;4.392;2022-11-04T06:32:13;10.65;;;2.67;;
23517;SDS011;11935;50.878;4.392;2022-11-04T06:34:39;9.38;;;2.47;;
23517;SDS011;11935;50.878;4.392;2022-11-04T06:37:06;8.20;;;1.75;;
23517;SDS011;11935;50.878;4.392;2022-11-04T06:39:32;11.82;;;2.45;;
23517;SDS011;11935;50.878;4.392;2022-11-04T06:41:58;14.30;;;3.10;;
23517;SDS011;11935;50.878;4.392;2022-11-04T06:44:24;8.50;;;2.35;;
23517;SDS011;11935;50.878;4.392;2022-11-04T06:46:50;9.63;;;2.70;;
23517;SDS011;11935;50.878;4.392;2022-11-04T06:49:18;12.57;;;2.60;;
23517;SDS011;11935;50.878;4.392;2022-11-04T06:51:44;11.33;;;3.40;;
23517;SDS011;11935;50.878;4.392;2022-11-04T06:54:11;6.78;;;2.58;;
23517;SDS011;11935;50.878;4.392;2022-11-04T06:56:37;9.35;;;3.28;;
23517;SDS011;11935;50.878;4.392;2022-11-04T06:59:03;7.13;;;2.75;;
23517;SDS011;11935;50.878;4.392;2022-11-04T07:01:32;10.32;;;3.35;;
23517;SDS011;11935;50.878;4.392;2022-11-04T07:04:00;9.18;;;2.50;;
23517;SDS011;11935;50.878;4.392;2022-11-04T07:06:27;8.85;;;3.10;;
23517;SDS011;11935;50.878;4.392;2022-11-04T07:08:55;7.90;;;2.45;;
23517;SDS011;11935;50.878;4.392;2022-11-04T07:11:21;7.57;;;2.42;;
23517;SDS011;11935;50.878;4.392;2022-11-04T07:13:49;8.93;;;2.72;;
23517;SDS011;11935;50.878;4.392;2022-11-04T07:16:15;9.98;;;2.70;;
23517;SDS011;11935;50.878;4.392;2022-11-04T07:18:41;14.00;;;2.50;;
23517;SDS011;11935;50.878;4.392;2022-11-04T07:21:07;18.40;;;2.65;;
23517;SDS011;11935;50.878;4.392;2022-11-04T07:23:33;9.23;;;2.67;;
23517;SDS011;11935;50.878;4.392;2022-11-04T07:26:00;9.63;;;2.85;;
23517;SDS011;11935;50.878;4.392;2022-11-04T07:28:28;10.90;;;2.70;;
23517;SDS011;11935;50.878;4.392;2022-11-04T07:30:54;9.30;;;2.05;;
23517;SDS011;11935;50.878;4.392;2022-11-04T07:33:21;14.57;;;2.70;;
23517;SDS011;11935;50.878;4.392;2022-11-04T07:35:48;9.10;;;2.75;;
23517;SDS011;11935;50.878;4.392;2022-11-04T07:38:14;16.80;;;2.75;;
23517;SDS011;11935;50.878;4.392;2022-11-04T07:40:40;13.27;;;5.75;;
23517;SDS011;11935;50.878;4.392;2022-11-04T07:43:05;10.50;;;2.72;;
23517;SDS011;11935;50.878;4.392;2022-11-04T07:45:32;9.48;;;2.80;;
23517;SDS011;11935;50.878;4.392;2022-11-04T07:47:58;13.32;;;2.45;;
23517;SDS011;11935;50.878;4.392;2022-11-04T07:50:24;9.80;;;2.78;;
23517;SDS011;11935;50.878;4.392;2022-11-04T07:52:50;8.57;;;2.20;;
23517;SDS011;11935;50.878;4.392;2022-11-04T07:55:16;8.90;;;2.55;;
23517;SDS011;11935;50.878;4.392;2022-11-04T07:57:43;8.00;;;2.80;;
23517;SDS011;11935;50.878;4.392;2022-11-04T08:00:09;10.80;;;3.30;;
23517;SDS011;11935;50.878;4.392;2022-11-04T08:02:36;10.38;;;3.17;;
23517;SDS011;11935;50.878;4.392;2022-11-04T08:05:02;12.70;;;2.60;;
23517;SDS011;11935;50.878;4.392;2022-11-04T08:07:30;12.43;;;2.65;;
23517;SDS011;11935;50.878;4.392;2022-11-04T08:09:56;8.43;;;2.35;;
23517;SDS011;11935;50.878;4.392;2022-11-04T08:12:22;11.55;;;2.67;;
23517;SDS011;11935;50.878;4.392;2022-11-04T08:14:49;12.23;;;2.80;;
23517;SDS011;11935;50.878;4.392;2022-11-04T08:17:15;14.30;;;3.15;;
23517;SDS011;11935;50.878;4.392;2022-11-04T08:19:41;7.68;;;2.80;;
23517;SDS011;11935;50.878;4.392;2022-11-04T08:22:07;10.65;;;2.95;;
23517;SDS011;11935;50.878;4.392;2022-11-04T08:24:33;6.22;;;2.60;;
23517;SDS011;11935;50.878;4.392;2022-11-04T08:27:00;11.57;;;2.63;;
23517;SDS011;11935;50.878;4.392;2022-11-04T08:29:26;8.43;;;2.60;;
23517;SDS011;11935;50.878;4.392;2022-11-04T08:31:52;12.00;;;3.50;;
23517;SDS011;11935;50.878;4.392;2022-11-04T08:34:18;10.77;;;3.20;;
23517;SDS011;11935;50.878;4.392;2022-11-04T08:36:44;13.95;;;3.60;;
23517;SDS011;11935;50.878;4.392;2022-11-04T08:39:10;13.80;;;3.22;;
23517;SDS011;11935;50.878;4.392;2022-11-04T08:41:38;12.85;;;3.58;;
23517;SDS011;11935;50.878;4.392;2022-11-04T08:44:05;11.43;;;3.40;;
23517;SDS011;11935;50.878;4.392;2022-11-04T08:46:36;10.20;;;3.67;;
23517;SDS011;11935;50.878;4.392;2022-11-04T08:49:02;14.27;;;4.57;;
23517;SDS011;11935;50.878;4.392;2022-11-04T08:51:29;11.23;;;3.55;;
23517;SDS011;11935;50.878;4.392;2022-11-04T08:53:56;13.68;;;3.88;;
23517;SDS011;11935;50.878;4.392;2022-11-04T08:56:24;11.02;;;3.80;;
23517;SDS011;11935;50.878;4.392;2022-11-04T08:58:50;11.73;;;3.87;;
23517;SDS011;11935;50.878;4.392;2022-11-04T09:01:16;12.55;;;3.22;;
23517;SDS011;11935;50.878;4.392;2022-11-04T09:03:43;18.48;;;3.70;;
23517;SDS011;11935;50.878;4.392;2022-11-04T09:06:10;13.32;;;3.92;;
23517;SDS011;11935;50.878;4.392;2022-11-04T09:08:37;15.07;;;3.40;;
23517;SDS011;11935;50.878;4.392;2022-11-04T09:11:07;28.77;;;4.18;;
23517;SDS011;11935;50.878;4.392;2022-11-04T09:13:33;21.83;;;4.75;;
23517;SDS011;11935;50.878;4.392;2022-11-04T09:16:00;16.52;;;3.38;;
23517;SDS011;11935;50.878;4.392;2022-11-04T09:18:26;12.80;;;2.53;;
23517;SDS011;11935;50.878;4.392;2022-11-04T09:20:52;12.00;;;2.33;;
23517;SDS011;11935;50.878;4.392;2022-11-04T09:23:18;15.02;;;2.45;;
23517;SDS011;11935;50.878;4.392;2022-11-04T09:25:44;8.88;;;2.65;;
23517;SDS011;11935;50.878;4.392;2022-11-04T09:28:10;12.48;;;2.72;;
23517;SDS011;11935;50.878;4.392;2022-11-04T09:30:36;9.48;;;2.53;;
23517;SDS011;11935;50.878;4.392;2022-11-04T09:33:02;11.55;;;2.90;;
23517;SDS011;11935;50.878;4.392;2022-11-04T09:35:28;8.63;;;2.53;;
23517;SDS011;11935;50.878;4.392;2022-11-04T09:37:55;10.38;;;2.58;;
23517;SDS011;11935;50.878;4.392;2022-11-04T09:40:22;14.57;;;2.80;;
23517;SDS011;11935;50.878;4.392;2022-11-04T09:42:55;12.77;;;2.70;;
23517;SDS011;11935;50.878;4.392;2022-11-04T09:45:25;9.45;;;2.60;;
23517;SDS011;11935;50.878;4.392;2022-11-04T09:47:54;15.07;;;3.05;;
23517;SDS011;11935;50.878;4.392;2022-11-04T09:50:24;14.90;;;2.97;;
23517;SDS011;11935;50.878;4.392;2022-11-04T09:52:56;10.05;;;2.85;;
23517;SDS011;11935;50.878;4.392;2022-11-04T09:55:25;9.68;;;2.83;;
23517;SDS011;11935;50.878;4.392;2022-11-04T09:57:54;7.40;;;2.67;;
23517;SDS011;11935;50.878;4.392;2022-11-04T10:00:22;11.75;;;2.95;;
23517;SDS011;11935;50.878;4.392;2022-11-04T10:02:50;6.63;;;2.35;;
23517;SDS011;11935;50.878;4.392;2022-11-04T10:29:03;10.25;;;2.50;;
23517;SDS011;11935;50.878;4.392;2022-11-04T10:31:30;8.82;;;3.33;;
23517;SDS011;11935;50.878;4.392;2022-11-04T10:36:25;11.57;;;2.85;;
23517;SDS011;11935;50.878;4.392;2022-11-04T10:38:52;11.02;;;2.97;;
23517;SDS011;11935;50.878;4.392;2022-11-04T10:43:45;6.65;;;2.38;;
23517;SDS011;11935;50.878;4.392;2022-11-04T10:51:59;10.88;;;2.85;;
23517;SDS011;11935;50.878;4.392;2022-11-04T10:54:25;8.98;;;3.30;;
23517;SDS011;11935;50.878;4.392;2022-11-04T10:56:53;12.85;;;3.45;;
23517;SDS011;11935;50.878;4.392;2022-11-04T11:01:50;10.82;;;4.55;;
23517;SDS011;11935;50.878;4.392;2022-11-04T11:04:27;8.63;;;5.53;;
23517;SDS011;11935;50.878;4.392;2022-11-04T11:06:54;17.73;;;6.25;;
23517;SDS011;11935;50.878;4.392;2022-11-04T11:09:22;17.23;;;7.03;;
23517;SDS011;11935;50.878;4.392;2022-11-04T11:11:52;14.98;;;7.20;;
23517;SDS011;11935;50.878;4.392;2022-11-04T11:16:55;19.60;;;6.80;;
23517;SDS011;11935;50.878;4.392;2022-11-04T11:19:25;15.30;;;7.00;;
23517;SDS011;11935;50.878;4.392;2022-11-04T11:21:52;12.20;;;6.40;;
23517;SDS011;11935;50.878;4.392;2022-11-04T11:24:25;12.70;;;5.90;;
23517;SDS011;11935;50.878;4.392;2022-11-04T11:29:19;14.77;;;5.88;;
23517;SDS011;11935;50.878;4.392;2022-11-04T11:31:46;9.80;;;5.18;;
23517;SDS011;11935;50.878;4.392;2022-11-04T11:34:20;12.25;;;4.95;;
23517;SDS011;11935;50.878;4.392;2022-11-04T11:36:47;11.95;;;4.75;;
23517;SDS011;11935;50.878;4.392;2022-11-04T11:39:15;14.73;;;5.35;;
23517;SDS011;11935;50.878;4.392;2022-11-04T11:46:48;9.27;;;3.97;;
23517;SDS011;11935;50.878;4.392;2022-11-04T11:49:24;9.65;;;4.10;;
23517;SDS011;11935;50.878;4.392;2022-11-04T11:51:52;7.82;;;3.97;;
23517;SDS011;11935;50.878;4.392;2022-11-04T11:56:51;8.20;;;4.30;;
23517;SDS011;11935;50.878;4.392;2022-11-04T12:01:50;10.48;;;5.45;;
23517;SDS011;11935;50.878;4.392;2022-11-04T12:04:18;11.65;;;6.00;;
23517;SDS011;11935;50.878;4.392;2022-11-04T12:06:58;11.93;;;5.68;;
23517;SDS011;11935;50.878;4.392;2022-11-04T12:17:14;11.05;;;6.13;;
23517;SDS011;11935;50.878;4.392;2022-11-04T12:25:13;14.93;;;5.65;;
23517;SDS011;11935;50.878;4.392;2022-11-04T12:30:26;13.93;;;5.55;;
23517;SDS011;11935;50.878;4.392;2022-11-04T12:35:42;11.60;;;5.38;;
23517;SDS011;11935;50.878;4.392;2022-11-04T12:40:44;10.00;;;6.38;;
23517;SDS011;11935;50.878;4.392;2022-11-04T12:43:24;10.40;;;5.70;;
23517;SDS011;11935;50.878;4.392;2022-11-04T12:46:03;11.20;;;6.75;;
23517;SDS011;11935;50.878;4.392;2022-11-04T12:51:31;11.55;;;4.60;;
23517;SDS011;11935;50.878;4.392;2022-11-04T12:54:07;11.20;;;4.38;;
23517;SDS011;11935;50.878;4.392;2022-11-04T12:56:35;11.35;;;4.50;;
23517;SDS011;11935;50.878;4.392;2022-11-04T12:59:07;15.00;;;4.85;;
23517;SDS011;11935;50.878;4.392;2022-11-04T13:01:47;9.90;;;4.10;;
23517;SDS011;11935;50.878;4.392;2022-11-04T13:07:40;10.77;;;4.05;;
23517;SDS011;11935;50.878;4.392;2022-11-04T13:10:18;11.95;;;4.38;;
23517;SDS011;11935;50.878;4.392;2022-11-04T13:12:46;12.60;;;5.38;;
23517;SDS011;11935;50.878;4.392;2022-11-04T13:15:23;10.32;;;4.93;;
23517;SDS011;11935;50.878;4.392;2022-11-04T13:17:53;10.73;;;5.40;;
23517;SDS011;11935;50.878;4.392;2022-11-04T13:22:51;20.15;;;7.20;;
23517;SDS011;11935;50.878;4.392;2022-11-04T13:25:24;10.70;;;6.57;;
23517;SDS011;11935;50.878;4.392;2022-11-04T13:27:53;14.40;;;7.53;;
23517;SDS011;11935;50.878;4.392;2022-11-04T13:31:02;11.85;;;7.80;;
23517;SDS011;11935;50.878;4.392;2022-11-04T13:38:24;10.68;;;7.30;;
23517;SDS011;11935;50.878;4.392;2022-11-04T13:43:21;14.93;;;9.15;;
23517;SDS011;11935;50.878;4.392;2022-11-04T13:48:36;13.88;;;6.53;;
23517;SDS011;11935;50.878;4.392;2022-11-04T13:51:10;13.05;;;6.63;;
23517;SDS011;11935;50.878;4.392;2022-11-04T13:53:53;9.70;;;5.53;;
23517;SDS011;11935;50.878;4.392;2022-11-04T13:56:27;8.63;;;4.90;;
23517;SDS011;11935;50.878;4.392;2022-11-04T13:58:55;12.93;;;4.82;;
23517;SDS011;11935;50.878;4.392;2022-11-04T14:04:02;10.68;;;4.38;;
23517;SDS011;11935;50.878;4.392;2022-11-04T14:06:54;9.88;;;3.42;;
23517;SDS011;11935;50.878;4.392;2022-11-04T14:14:33;9.15;;;3.90;;
23517;SDS011;11935;50.878;4.392;2022-11-04T14:16:59;7.85;;;3.40;;
23517;SDS011;11935;50.878;4.392;2022-11-04T14:22:14;7.70;;;3.17;;
23517;SDS011;11935;50.878;4.392;2022-11-04T14:24:40;6.93;;;3.58;;
23517;SDS011;11935;50.878;4.392;2022-11-04T14:27:21;6.97;;;3.33;;
23517;SDS011;11935;50.878;4.392;2022-11-04T14:29:49;5.95;;;3.17;;
23517;SDS011;11935;50.878;4.392;2022-11-04T14:32:17;5.68;;;2.28;;
23517;SDS011;11935;50.878;4.392;2022-11-04T14:34:48;5.97;;;2.05;;
23517;SDS011;11935;50.878;4.392;2022-11-04T14:37:25;6.68;;;1.42;;
23517;SDS011;11935;50.878;4.392;2022-11-04T14:39:54;2.60;;;1.00;;
23517;SDS011;11935;50.878;4.392;2022-11-04T14:42:41;1.75;;;0.43;;
23517;SDS011;11935;50.878;4.392;2022-11-04T14:45:08;1.98;;;0.63;;
23517;SDS011;11935;50.878;4.392;2022-11-04T14:47:40;2.53;;;0.40;;
23517;SDS011;11935;50.878;4.392;2022-11-04T14:50:13;1.95;;;0.75;;
23517;SDS011;11935;50.878;4.392;2022-11-04T14:57:41;12.40;;;11.10;;
23517;SDS011;11935;50.878;4.392;2022-11-04T15:03:14;2.60;;;0.70;;
23517;SDS011;11935;50.878;4.392;2022-11-04T15:05:48;1.98;;;0.68;;
23517;SDS011;11935;50.878;4.392;2022-11-04T15:10:58;3.05;;;0.80;;
23517;SDS011;11935;50.878;4.392;2022-11-04T15:13:24;1.90;;;0.47;;
23517;SDS011;11935;50.878;4.392;2022-11-04T15:15:51;2.53;;;0.60;;
23517;SDS011;11935;50.878;4.392;2022-11-04T15:18:22;1.70;;;0.47;;
23517;SDS011;11935;50.878;4.392;2022-11-04T15:26:06;2.53;;;0.77;;
23517;SDS011;11935;50.878;4.392;2022-11-04T15:28:33;2.60;;;0.73;;
23517;SDS011;11935;50.878;4.392;2022-11-04T15:31:04;1.92;;;0.50;;
23517;SDS011;11935;50.878;4.392;2022-11-04T15:33:33;1.25;;;0.60;;
23517;SDS011;11935;50.878;4.392;2022-11-04T15:36:01;1.98;;;0.70;;
23517;SDS011;11935;50.878;4.392;2022-11-04T15:38:27;4.72;;;0.80;;
23517;SDS011;11935;50.878;4.392;2022-11-04T15:40:54;2.95;;;0.75;;
23517;SDS011;11935;50.878;4.392;2022-11-04T15:43:41;3.05;;;1.13;;
23517;SDS011;11935;50.878;4.392;2022-11-04T15:46:13;1.27;;;0.80;;
23517;SDS011;11935;50.878;4.392;2022-11-04T15:48:40;1.92;;;0.80;;
23517;SDS011;11935;50.878;4.392;2022-11-04T15:53:46;7.40;;;1.08;;
23517;SDS011;11935;50.878;4.392;2022-11-04T15:56:14;1.77;;;0.88;;
23517;SDS011;11935;50.878;4.392;2022-11-04T15:58:41;2.42;;;0.90;;
23517;SDS011;11935;50.878;4.392;2022-11-04T16:01:08;1.60;;;0.80;;
23517;SDS011;11935;50.878;4.392;2022-11-04T16:03:37;2.47;;;0.95;;
23517;SDS011;11935;50.878;4.392;2022-11-04T16:06:06;7.50;;;1.20;;
23517;SDS011;11935;50.878;4.392;2022-11-04T16:08:33;3.50;;;1.40;;
23517;SDS011;11935;50.878;4.392;2022-11-04T16:11:10;4.88;;;1.38;;
23517;SDS011;11935;50.878;4.392;2022-11-04T16:13:37;5.18;;;1.23;;
23517;SDS011;11935;50.878;4.392;2022-11-04T16:16:04;4.97;;;1.35;;
23517;SDS011;11935;50.878;4.392;2022-11-04T16:18:37;4.95;;;1.15;;
23517;SDS011;11935;50.878;4.392;2022-11-04T16:21:18;5.47;;;1.40;;
23517;SDS011;11935;50.878;4.392;2022-11-04T16:23:46;2.95;;;1.35;;
23517;SDS011;11935;50.878;4.392;2022-11-04T16:26:13;4.15;;;1.48;;
23517;SDS011;11935;50.878;4.392;2022-11-04T16:28:40;5.70;;;1.40;;
23517;SDS011;11935;50.878;4.392;2022-11-04T16:33:50;6.00;;;1.40;;
23517;SDS011;11935;50.878;4.392;2022-11-04T16:36:17;7.07;;;1.30;;
23517;SDS011;11935;50.878;4.392;2022-11-04T16:38:53;3.83;;;1.23;;
23517;SDS011;11935;50.878;4.392;2022-11-04T16:41:19;4.18;;;1.50;;
23517;SDS011;11935;50.878;4.392;2022-11-04T16:43:46;4.45;;;1.30;;
23517;SDS011;11935;50.878;4.392;2022-11-04T16:46:13;5.00;;;1.17;;
23517;SDS011;11935;50.878;4.392;2022-11-04T16:48:39;8.63;;;1.40;;
23517;SDS011;11935;50.878;4.392;2022-11-04T16:51:05;4.95;;;1.40;;
23517;SDS011;11935;50.878;4.392;2022-11-04T16:53:31;4.60;;;1.40;;
23517;SDS011;11935;50.878;4.392;2022-11-04T16:55:57;3.17;;;1.35;;
23517;SDS011;11935;50.878;4.392;2022-11-04T16:58:24;4.10;;;1.10;;
23517;SDS011;11935;50.878;4.392;2022-11-04T17:00:50;5.13;;;1.75;;
23517;SDS011;11935;50.878;4.392;2022-11-04T17:03:17;4.80;;;1.58;;
23517;SDS011;11935;50.878;4.392;2022-11-04T17:05:48;3.85;;;1.60;;
23517;SDS011;11935;50.878;4.392;2022-11-04T17:08:14;5.68;;;1.30;;
23517;SDS011;11935;50.878;4.392;2022-11-04T17:10:40;3.28;;;1.40;;
23517;SDS011;11935;50.878;4.392;2022-11-04T17:13:08;3.35;;;1.35;;
23517;SDS011;11935;50.878;4.392;2022-11-04T17:15:34;3.97;;;1.23;;
23517;SDS011;11935;50.878;4.392;2022-11-04T17:18:00;3.92;;;1.20;;
23517;SDS011;11935;50.878;4.392;2022-11-04T17:20:26;4.00;;;1.20;;
23517;SDS011;11935;50.878;4.392;2022-11-04T17:22:54;4.88;;;2.08;;
23517;SDS011;11935;50.878;4.392;2022-11-04T17:25:21;11.13;;;4.20;;
23517;SDS011;11935;50.878;4.392;2022-11-04T17:27:47;6.70;;;3.83;;